createdAt,value
2019-04-01T00:00:43.617Z,101019.27
2019-04-01T00:03:15.379Z,101018.66
2019-04-01T00:05:47.026Z,101017.23
2019-04-01T00:08:19.002Z,101019.33
2019-04-01T00:10:50.920Z,101018.94
2019-04-01T00:13:22.732Z,101014.66
2019-04-01T00:15:54.693Z,101009.73
2019-04-01T00:18:26.800Z,101009.95
2019-04-01T00:20:58.320Z,101010.94
2019-04-01T00:23:29.966Z,101004.98
2019-04-01T00:26:01.837Z,100995.78
2019-04-01T00:28:33.888Z,100993.25
2019-04-01T00:31:05.355Z,100995.34
2019-04-01T00:33:37.126Z,100991.25
2019-04-01T00:36:08.674Z,100986.14
2019-04-01T00:38:44.585Z,100988.50
2019-04-01T00:41:15.959Z,100988.41
2019-04-01T00:43:55.114Z,100988.41
2019-04-01T00:46:26.566Z,100985.16
2019-04-01T00:48:58.610Z,100980.24
2019-04-01T00:51:30.264Z,100978.33
2019-04-01T00:54:02.146Z,100972.91
2019-04-01T00:56:33.801Z,100981.12
2019-04-01T00:59:05.975Z,100972.23
2019-04-01T01:01:37.628Z,100971.63
2019-04-01T01:04:10.607Z,100972.59
2019-04-01T01:06:42.077Z,100970.34
2019-04-01T01:09:14.138Z,100967.53
2019-04-01T01:11:45.796Z,100967.66
2019-04-01T01:14:17.761Z,100968.30
2019-04-01T01:16:50.272Z,100967.18
2019-04-01T01:19:21.782Z,100962.59
2019-04-01T01:21:53.800Z,100958.81
2019-04-01T01:24:25.524Z,100962.42
2019-04-01T01:26:56.963Z,100965.30
2019-04-01T01:29:28.824Z,100961.52
2019-04-01T01:32:00.498Z,100959.58
2019-04-01T01:34:32.135Z,100955.48
2019-04-01T01:37:03.914Z,100959.42
2019-04-01T01:39:35.757Z,100963.33
2019-04-01T01:42:07.317Z,100957.91
2019-04-01T01:44:39.096Z,100957.08
2019-04-01T01:47:10.956Z,100958.63
2019-04-01T01:49:42.712Z,100960.18
2019-04-01T01:52:15.085Z,100954.48
2019-04-01T01:54:46.765Z,100949.87
2019-04-01T01:57:18.501Z,100951.95
2019-04-01T01:59:50.350Z,100943.55
2019-04-01T02:02:21.923Z,100948.30
2019-04-01T02:04:53.885Z,100951.45
2019-04-01T02:07:25.427Z,100951.98
2019-04-01T02:09:57.406Z,100956.47
2019-04-01T02:12:28.961Z,100954.86
2019-04-01T02:15:00.719Z,100952.41
2019-04-01T02:17:34.919Z,100954.46
2019-04-01T02:20:06.906Z,100955.27
2019-04-01T02:22:38.548Z,100957.88
2019-04-01T02:25:10.218Z,100955.33
2019-04-01T02:27:41.874Z,100963.54
2019-04-01T02:30:13.750Z,100959.45
2019-04-01T02:32:45.713Z,100963.66
2019-04-01T02:35:17.463Z,100962.02
2019-04-01T02:37:49.227Z,100969.11
2019-04-01T02:40:22.130Z,100967.97
2019-04-01T02:42:53.982Z,100965.23
2019-04-01T02:45:25.452Z,100964.92
2019-04-01T02:47:56.878Z,100968.83
2019-04-01T02:50:28.847Z,100972.41
2019-04-01T02:53:00.574Z,100970.39
2019-04-01T02:55:32.670Z,100975.31
2019-04-01T02:58:04.529Z,100973.39
2019-04-01T03:00:36.064Z,100974.72
2019-04-01T03:03:07.637Z,100968.28
2019-04-01T03:05:39.303Z,100971.16
2019-04-01T03:08:11.259Z,100971.87
2019-04-01T03:10:43.633Z,100979.36
2019-04-01T03:13:15.080Z,100978.93
2019-04-01T03:15:46.743Z,100977.07
2019-04-01T03:18:19.424Z,100985.06
2019-04-01T03:20:51.101Z,100983.52
2019-04-01T03:23:22.849Z,100984.35
2019-04-01T03:25:54.603Z,100991.11
2019-04-01T03:28:26.157Z,100993.45
2019-04-01T03:30:57.698Z,100993.77
2019-04-01T03:33:29.462Z,101003.09
2019-04-01T03:36:01.142Z,101003.68
2019-04-01T03:38:33.101Z,101001.11
2019-04-01T03:41:04.653Z,101003.04
2019-04-01T03:43:36.492Z,100997.13
2019-04-01T03:46:08.274Z,101001.42
2019-04-01T03:48:39.945Z,100997.81
2019-04-01T03:51:11.806Z,100996.08
2019-04-01T03:53:43.349Z,100997.78
2019-04-01T03:56:15.622Z,100998.41
2019-04-01T03:58:47.174Z,101000.64
2019-04-01T04:01:19.506Z,100996.83
2019-04-01T04:03:51.310Z,100995.44
2019-04-01T04:06:23.178Z,100989.28
2019-04-01T04:08:56.083Z,100997.74
2019-04-01T04:11:27.921Z,101006.23
2019-04-01T04:13:59.709Z,101008.06
2019-04-01T04:16:31.656Z,101007.47
2019-04-01T04:19:03.713Z,101005.70
2019-04-01T04:21:35.349Z,101014.10
2019-04-01T04:24:07.230Z,101013.14
2019-04-01T04:26:38.908Z,101016.20
2019-04-01T04:29:10.442Z,101010.00
2019-04-01T04:31:42.516Z,101012.94
2019-04-01T04:34:14.170Z,101015.34
2019-04-01T04:36:45.932Z,101010.28
2019-04-01T04:39:17.598Z,101017.80
2019-04-01T04:41:49.448Z,101013.72
2019-04-01T04:44:21.402Z,101011.00
2019-04-01T04:46:52.976Z,101008.81
2019-04-01T04:49:24.927Z,101009.34
2019-04-01T04:51:56.590Z,101003.73
2019-04-01T04:54:28.450Z,101000.25
2019-04-01T04:57:00.107Z,100994.94
2019-04-01T04:59:32.170Z,101001.62
2019-04-01T05:02:04.138Z,101002.75
2019-04-01T05:04:36.001Z,100996.59
2019-04-01T05:07:08.168Z,101000.38
2019-04-01T05:09:39.618Z,100994.80
2019-04-01T05:12:11.797Z,101003.67
2019-04-01T05:14:43.628Z,100991.94
2019-04-01T05:17:15.605Z,100996.22
2019-04-01T05:19:48.303Z,100994.94
2019-04-01T05:22:20.265Z,100993.12
2019-04-01T05:24:52.287Z,100991.29
2019-04-01T05:27:25.919Z,100994.34
2019-04-01T05:29:57.482Z,100996.81
2019-04-01T05:32:29.330Z,100993.40
2019-04-01T05:35:01.118Z,100990.77
2019-04-01T05:37:32.662Z,100987.94
2019-04-01T05:40:05.062Z,100992.78
2019-04-01T05:42:37.085Z,100995.10
2019-04-01T05:45:08.761Z,100994.61
2019-04-01T05:47:45.430Z,100993.57
2019-04-01T05:50:17.138Z,100992.28
2019-04-01T05:52:49.150Z,100992.61
2019-04-01T05:55:20.598Z,100991.03
2019-04-01T05:57:53.693Z,100992.67
2019-04-01T06:00:30.169Z,100987.65
2019-04-01T06:03:01.923Z,100992.47
2019-04-01T06:05:33.457Z,100995.46
2019-04-01T06:08:05.322Z,100987.94
2019-04-01T06:10:37.914Z,100991.41
2019-04-01T06:13:09.661Z,100976.52
2019-04-01T06:15:41.425Z,100976.52
2019-04-01T06:18:13.306Z,100976.16
2019-04-01T06:20:45.187Z,100968.27
2019-04-01T06:23:17.199Z,100963.14
2019-04-01T06:25:48.581Z,100963.14
2019-04-01T06:28:21.885Z,100968.13
2019-04-01T06:30:54.049Z,100969.63
2019-04-01T06:33:25.619Z,100970.01
2019-04-01T06:35:57.271Z,100964.74
2019-04-01T06:38:28.818Z,100969.96
2019-04-01T06:41:00.766Z,100966.01
2019-04-01T06:43:32.418Z,100967.97
2019-04-01T06:46:04.176Z,100968.29
2019-04-01T06:48:36.068Z,100967.52
2019-04-01T06:51:07.715Z,100968.09
2019-04-01T06:53:39.480Z,100973.24
2019-04-01T06:56:11.123Z,100971.62
2019-04-01T06:58:43.120Z,100976.45
2019-04-01T07:01:14.637Z,100971.02
2019-04-01T07:03:46.416Z,100976.92
2019-04-01T07:06:17.968Z,100977.14
2019-04-01T07:08:49.835Z,100976.00
2019-04-01T07:11:21.713Z,100981.85
2019-04-01T07:13:53.456Z,100979.04
2019-04-01T07:16:24.995Z,100969.47
2019-04-01T07:18:57.110Z,100964.41
2019-04-01T07:21:29.454Z,100958.84
2019-04-01T07:24:01.203Z,100963.83
2019-04-01T07:26:32.849Z,100954.41
2019-04-01T07:29:04.731Z,100956.10
2019-04-01T07:31:36.280Z,100951.03
2019-04-01T07:34:08.359Z,100946.17
2019-04-01T07:36:40.194Z,100940.98
2019-04-01T07:39:11.958Z,100936.38
2019-04-01T07:41:43.516Z,100936.94
2019-04-01T07:44:15.495Z,100935.45
2019-04-01T07:46:47.153Z,100934.09
2019-04-01T07:49:19.018Z,100939.02
2019-04-01T07:51:51.286Z,100940.54
2019-04-01T07:54:22.924Z,100928.38
2019-04-01T07:56:54.700Z,100930.91
2019-04-01T07:59:26.147Z,100920.95
2019-04-01T08:01:57.913Z,100911.81
2019-04-01T08:04:29.883Z,100906.20
2019-04-01T08:07:01.318Z,100904.67
2019-04-01T08:09:33.099Z,100902.29
2019-04-01T08:12:05.052Z,100900.71
2019-04-01T08:14:36.620Z,100898.50
2019-04-01T08:17:08.367Z,100895.55
2019-04-01T08:19:40.245Z,100893.44
2019-04-01T08:22:12.006Z,100887.41
2019-04-01T08:24:43.843Z,100883.65
2019-04-01T08:27:15.522Z,100882.07
2019-04-01T08:29:47.053Z,100875.90
2019-04-01T08:32:19.034Z,100878.05
2019-04-01T08:34:50.798Z,100873.62
2019-04-01T08:37:22.644Z,100867.36
2019-04-01T08:39:54.261Z,100864.14
2019-04-01T08:42:26.077Z,100862.14
2019-04-01T08:44:57.839Z,100859.61
2019-04-01T08:47:29.689Z,100858.25
2019-04-01T08:50:01.147Z,100863.73
2019-04-01T08:52:32.814Z,100863.98
2019-04-01T08:55:06.830Z,100857.69
2019-04-01T08:57:38.362Z,100862.41
2019-04-01T09:00:10.241Z,100858.17
2019-04-01T09:02:41.902Z,100858.39
2019-04-01T09:05:13.559Z,100852.11
2019-04-01T09:07:45.183Z,100849.47
2019-04-01T09:10:16.955Z,100841.16
2019-04-01T09:12:48.814Z,100842.53
2019-04-01T09:15:20.475Z,100838.94
2019-04-01T09:17:52.381Z,100845.52
2019-04-01T09:20:24.214Z,100845.02
2019-04-01T09:22:59.107Z,100838.53
2019-04-01T09:25:29.066Z,100838.20
2019-04-01T09:28:00.742Z,100843.05
2019-04-01T09:30:33.302Z,100844.23
2019-04-01T09:33:05.059Z,100833.08
2019-04-01T09:35:36.501Z,100830.60
2019-04-01T09:38:08.567Z,100832.12
2019-04-01T09:40:40.227Z,100828.78
2019-04-01T09:43:14.139Z,100833.73
2019-04-01T09:45:45.296Z,100830.55
2019-04-01T09:48:17.267Z,100832.40
2019-04-01T09:50:49.023Z,100825.45
2019-04-01T09:53:22.003Z,100820.07
2019-04-01T09:55:53.568Z,100803.73
2019-04-01T09:58:25.027Z,100805.58
2019-04-01T10:00:56.657Z,100817.13
2019-04-01T10:03:28.438Z,100814.62
2019-04-01T10:05:59.974Z,100814.27
2019-04-01T10:08:42.166Z,100809.80
2019-04-01T10:11:05.188Z,100809.92
2019-04-01T10:13:36.784Z,100809.82
2019-04-01T10:16:08.377Z,100810.53
2019-04-01T10:18:40.020Z,100801.17
2019-04-01T10:21:11.670Z,100786.90
2019-04-01T10:23:44.557Z,100786.79
2019-04-01T10:26:16.431Z,100782.09
2019-04-01T10:28:48.071Z,100784.05
2019-04-01T10:31:21.380Z,100779.36
2019-04-01T10:33:52.842Z,100781.75
2019-04-01T10:36:24.601Z,100779.73
2019-04-01T10:38:56.254Z,100783.61
2019-04-01T10:41:28.425Z,100790.33
2019-04-01T10:44:00.184Z,100775.36
2019-04-01T10:46:32.152Z,100782.55
2019-04-01T10:49:03.718Z,100784.16
2019-04-01T10:51:35.794Z,100780.15
2019-04-01T10:54:07.552Z,100776.15
2019-04-01T10:56:40.852Z,100772.36
2019-04-01T10:59:12.297Z,100762.28
2019-04-01T11:01:44.176Z,100770.84
2019-04-01T11:04:16.030Z,100771.86
2019-04-01T11:06:47.608Z,100770.26
2019-04-01T11:09:19.461Z,100756.88
2019-04-01T11:11:51.309Z,100753.91
2019-04-01T11:14:23.243Z,100752.14
2019-04-01T11:16:55.934Z,100757.50
2019-04-01T11:19:27.492Z,100756.88
2019-04-01T11:22:00.066Z,100743.15
2019-04-01T11:24:31.829Z,100756.56
2019-04-01T11:27:03.691Z,100754.83
2019-04-01T11:29:35.536Z,100749.11
2019-04-01T11:32:07.754Z,100736.62
2019-04-01T11:34:40.613Z,100737.75
2019-04-01T11:37:12.476Z,100749.02
2019-04-01T11:39:44.535Z,100748.55
2019-04-01T11:42:16.719Z,100737.80
2019-04-01T11:44:48.449Z,100737.37
2019-04-01T11:47:22.137Z,100734.16
2019-04-01T11:49:53.945Z,100740.44
2019-04-01T11:52:25.790Z,100728.84
2019-04-01T11:54:57.571Z,100725.72
2019-04-01T11:57:30.640Z,100727.05
2019-04-01T12:00:02.178Z,100727.80
2019-04-01T12:02:34.162Z,100722.89
2019-04-01T12:05:06.432Z,100713.17
2019-04-01T12:07:38.088Z,100710.47
2019-04-01T12:10:10.381Z,100716.07
2019-04-01T12:12:42.212Z,100728.97
2019-04-01T12:15:13.991Z,100725.73
2019-04-01T12:17:45.628Z,100723.52
2019-04-01T12:20:17.303Z,100717.75
2019-04-01T12:22:49.777Z,100704.81
2019-04-01T12:25:21.108Z,100706.58
2019-04-01T12:27:52.889Z,100718.00
2019-04-01T12:30:26.214Z,100714.98
2019-04-01T12:32:57.950Z,100717.81
2019-04-01T12:35:29.482Z,100715.52
2019-04-01T12:38:01.386Z,100713.06
2019-04-01T12:40:33.106Z,100700.12
2019-04-01T12:43:04.982Z,100701.98
2019-04-01T12:45:36.949Z,100706.11
2019-04-01T12:48:08.489Z,100706.41
2019-04-01T12:50:40.267Z,100711.80
2019-04-01T12:53:12.022Z,100710.83
2019-04-01T12:55:45.066Z,100703.43
2019-04-01T12:58:17.803Z,100703.25
2019-04-01T13:00:49.458Z,100701.91
2019-04-01T13:03:22.548Z,100695.64
2019-04-01T13:05:57.152Z,100702.75
2019-04-01T13:08:29.012Z,100703.45
2019-04-01T13:11:00.772Z,100705.24
2019-04-01T13:13:32.250Z,100704.67
2019-04-01T13:16:03.988Z,100709.13
2019-04-01T13:18:38.115Z,100704.64
2019-04-01T13:21:08.960Z,100714.74
2019-04-01T13:23:41.627Z,100692.03
2019-04-01T13:26:13.424Z,100688.80
2019-04-01T13:28:45.050Z,100697.16
2019-04-01T13:31:16.604Z,100696.83
2019-04-01T13:33:48.092Z,100700.79
2019-04-01T13:36:21.175Z,100698.37
2019-04-01T13:38:53.134Z,100703.20
2019-04-01T13:41:25.309Z,100709.25
2019-04-01T13:43:56.963Z,100714.70
2019-04-01T13:46:28.442Z,100701.42
2019-04-01T13:49:04.158Z,100700.40
2019-04-01T13:51:33.399Z,100693.48
2019-04-01T13:54:09.045Z,100703.69
2019-04-01T13:56:38.216Z,100701.06
2019-04-01T13:59:11.927Z,100702.25
2019-04-01T14:01:43.355Z,100706.66
2019-04-01T14:04:15.139Z,100702.58
2019-04-01T14:06:46.699Z,100707.96
2019-04-01T14:09:18.121Z,100706.70
2019-04-01T14:11:51.419Z,100704.22
2019-04-01T14:14:22.991Z,100704.20
2019-04-01T14:16:54.652Z,100700.42
2019-04-01T14:19:26.513Z,100695.31
2019-04-01T14:21:58.371Z,100696.55
2019-04-01T14:24:30.442Z,100704.95
2019-04-01T14:27:02.205Z,100721.23
2019-04-01T14:29:33.691Z,100702.98
2019-04-01T14:32:05.616Z,100697.49
2019-04-01T14:34:37.193Z,100696.82
2019-04-01T14:37:09.790Z,100707.67
2019-04-01T14:39:41.570Z,100716.28
2019-04-01T14:42:14.109Z,100701.98
2019-04-01T14:44:51.388Z,100708.14
2019-04-01T14:47:23.143Z,100718.12
2019-04-01T14:49:54.784Z,100708.13
2019-04-01T14:52:32.542Z,100705.64
2019-04-01T14:55:03.954Z,100709.41
2019-04-01T14:57:35.406Z,100710.09
2019-04-01T15:00:08.343Z,100710.21
2019-04-01T15:02:40.054Z,100716.86
2019-04-01T15:05:12.763Z,100735.92
2019-04-01T15:07:44.804Z,100736.69
2019-04-01T15:10:16.730Z,100743.65
2019-04-01T15:12:48.423Z,100739.98
2019-04-01T15:15:19.997Z,100735.06
2019-04-01T15:17:51.739Z,100739.95
2019-04-01T15:20:23.706Z,100748.11
2019-04-01T15:22:55.384Z,100740.23
2019-04-01T15:25:27.976Z,100763.69
2019-04-01T15:27:59.521Z,100746.19
2019-04-01T15:30:32.059Z,100751.31
2019-04-01T15:33:03.616Z,100754.20
2019-04-01T15:35:35.596Z,100757.45
2019-04-01T15:38:07.066Z,100762.66
2019-04-01T15:40:38.998Z,100754.98
2019-04-01T15:43:11.983Z,100763.44
2019-04-01T15:45:43.753Z,100764.14
2019-04-01T15:48:15.626Z,100765.95
2019-04-01T15:50:47.508Z,100784.86
2019-04-01T15:53:19.351Z,100765.45
2019-04-01T15:55:51.009Z,100779.17
2019-04-01T15:58:22.751Z,100784.70
2019-04-01T16:00:54.445Z,100776.50
2019-04-01T16:03:26.263Z,100796.13
2019-04-01T16:06:03.034Z,100792.73
2019-04-01T16:08:34.930Z,100798.83
2019-04-01T16:11:06.891Z,100799.16
2019-04-01T16:13:38.426Z,100803.08
2019-04-01T16:16:10.410Z,100820.05
2019-04-01T16:18:41.960Z,100814.52
2019-04-01T16:21:14.231Z,100819.20
2019-04-01T16:23:47.123Z,100835.61
2019-04-01T16:26:19.888Z,100836.69
2019-04-01T16:28:51.767Z,100836.47
2019-04-01T16:31:23.531Z,100859.63
2019-04-01T16:33:55.386Z,100849.97
2019-04-01T16:36:27.032Z,100854.48
2019-04-01T16:39:00.549Z,100848.20
2019-04-01T16:41:33.526Z,100855.13
2019-04-01T16:44:08.172Z,100878.34
2019-04-01T16:46:40.950Z,100863.17
2019-04-01T16:49:12.617Z,100862.12
2019-04-01T16:51:44.356Z,100883.89
2019-04-01T16:54:16.136Z,100884.98
2019-04-01T16:56:48.180Z,100895.84
2019-04-01T16:59:19.635Z,100907.70
2019-04-01T17:01:52.225Z,100916.31
2019-04-01T17:04:23.783Z,100919.64
2019-04-01T17:06:55.548Z,100919.48
2019-04-01T17:09:27.314Z,100933.97
2019-04-01T17:11:59.212Z,100919.00
2019-04-01T17:14:30.817Z,100939.84
2019-04-01T17:17:02.490Z,100933.74
2019-04-01T17:19:34.175Z,100938.99
2019-04-01T17:22:06.607Z,100943.69
2019-04-01T17:24:38.054Z,100941.92
2019-04-01T17:27:11.451Z,100948.31
2019-04-01T17:29:44.952Z,100949.03
2019-04-01T17:32:16.311Z,100945.64
2019-04-01T17:34:50.234Z,100949.86
2019-04-01T17:37:21.767Z,100962.19
2019-04-01T17:39:53.547Z,100956.34
2019-04-01T17:42:25.304Z,100961.64
2019-04-01T17:45:01.400Z,100985.63
2019-04-01T17:47:32.806Z,100956.91
2019-04-01T17:50:06.511Z,100978.40
2019-04-01T17:52:37.975Z,100963.63
2019-04-01T17:55:09.848Z,100967.77
2019-04-01T17:57:42.831Z,100977.91
2019-04-01T18:00:25.141Z,100990.98
2019-04-01T18:02:56.892Z,100981.86
2019-04-01T18:05:28.855Z,100990.63
2019-04-01T18:08:00.309Z,100997.44
2019-04-01T18:10:32.363Z,100988.82
2019-04-01T18:13:03.820Z,101015.73
2019-04-01T18:15:35.374Z,101014.96
2019-04-01T18:18:07.253Z,101017.72
2019-04-01T18:20:39.011Z,101006.09
2019-04-01T18:23:11.490Z,101009.38
2019-04-01T18:25:43.329Z,101011.55
2019-04-01T18:28:14.888Z,101028.38
2019-04-01T18:30:47.886Z,101028.67
2019-04-01T18:33:20.064Z,101026.48
2019-04-01T18:35:51.614Z,101017.07
2019-04-01T18:38:23.785Z,101020.36
2019-04-01T18:40:55.529Z,101020.41
2019-04-01T18:43:28.108Z,101026.13
2019-04-01T18:45:59.781Z,101026.44
2019-04-01T18:48:31.644Z,101022.39
2019-04-01T18:51:03.408Z,101027.83
2019-04-01T18:53:35.272Z,101027.89
2019-04-01T18:56:07.854Z,101041.23
2019-04-01T18:58:39.609Z,101041.81
2019-04-01T19:01:11.063Z,101035.38
2019-04-01T19:03:43.164Z,101036.26
2019-04-01T19:06:14.884Z,101044.44
2019-04-01T19:08:46.539Z,101038.53
2019-04-01T19:11:18.406Z,101046.41
2019-04-01T19:13:50.163Z,101044.84
2019-04-01T19:16:23.086Z,101045.16
2019-04-01T19:18:54.614Z,101056.06
2019-04-01T19:21:26.251Z,101061.78
2019-04-01T19:23:59.172Z,101056.39
2019-04-01T19:26:31.504Z,101062.66
2019-04-01T19:29:03.492Z,101068.33
2019-04-01T19:31:35.248Z,101059.12
2019-04-01T19:34:07.406Z,101077.02
2019-04-01T19:36:39.285Z,101074.60
2019-04-01T19:39:11.345Z,101079.74
2019-04-01T19:41:42.791Z,101078.39
2019-04-01T19:44:14.677Z,101075.41
2019-04-01T19:46:46.120Z,101083.29
2019-04-01T19:49:17.778Z,101084.89
2019-04-01T19:51:49.852Z,101089.79
2019-04-01T19:54:30.955Z,101096.84
2019-04-01T19:56:54.903Z,101085.48
2019-04-01T19:59:26.359Z,101081.16
2019-04-01T20:01:58.333Z,101077.66
2019-04-01T20:04:30.898Z,101090.40
2019-04-01T20:07:02.762Z,101083.09
2019-04-01T20:09:34.415Z,101081.49
2019-04-01T20:12:07.492Z,101088.27
2019-04-01T20:14:40.603Z,101088.54
2019-04-01T20:17:12.339Z,101099.64
2019-04-01T20:19:43.998Z,101080.19
2019-04-01T20:22:15.962Z,101082.61
2019-04-01T20:24:48.035Z,101085.87
2019-04-01T20:27:20.713Z,101089.95
2019-04-01T20:29:52.587Z,101092.65
2019-04-01T20:32:24.293Z,101094.27
2019-04-01T20:34:57.389Z,101094.83
2019-04-01T20:37:29.624Z,101095.89
2019-04-01T20:40:01.274Z,101100.48
2019-04-01T20:42:33.911Z,101099.41
2019-04-01T20:45:07.238Z,101098.86
2019-04-01T20:47:38.929Z,101114.80
2019-04-01T20:50:10.657Z,101102.91
2019-04-01T20:52:42.208Z,101105.07
2019-04-01T20:55:14.271Z,101106.12
2019-04-01T20:57:46.519Z,101116.94
2019-04-01T21:00:18.497Z,101118.56
2019-04-01T21:02:50.376Z,101115.02
2019-04-01T21:05:23.141Z,101110.16
2019-04-01T21:07:55.731Z,101130.68
2019-04-01T21:10:27.290Z,101122.05
2019-04-01T21:12:59.355Z,101132.55
2019-04-01T21:15:30.909Z,101129.03
2019-04-01T21:18:02.651Z,101129.27
2019-04-01T21:20:34.324Z,101128.44
2019-04-01T21:23:07.195Z,101135.17
2019-04-01T21:25:40.199Z,101143.27
2019-04-01T21:28:11.767Z,101137.06
2019-04-01T21:30:44.247Z,101131.60
2019-04-01T21:33:16.998Z,101133.50
2019-04-01T21:35:48.674Z,101151.28
2019-04-01T21:38:21.043Z,101131.04
2019-04-01T21:40:52.814Z,101131.59
2019-04-01T21:43:24.566Z,101137.25
2019-04-01T21:45:56.103Z,101139.09
2019-04-01T21:48:27.982Z,101136.64
2019-04-01T21:50:59.836Z,101135.25
2019-04-01T21:53:31.658Z,101134.71
2019-04-01T21:56:03.140Z,101137.92
2019-04-01T21:58:35.125Z,101128.73
2019-04-01T22:01:06.677Z,101136.50
2019-04-01T22:03:39.962Z,101133.77
2019-04-01T22:06:11.931Z,101135.35
2019-04-01T22:08:44.007Z,101134.25
2019-04-01T22:11:15.644Z,101142.58
2019-04-01T22:13:47.662Z,101134.45
2019-04-01T22:16:19.436Z,101133.61
2019-04-01T22:18:50.922Z,101130.33
2019-04-01T22:21:22.691Z,101141.59
2019-04-01T22:23:54.154Z,101144.79
2019-04-01T22:26:25.709Z,101127.48
2019-04-01T22:28:57.369Z,101140.36
2019-04-01T22:31:29.129Z,101151.17
2019-04-01T22:34:02.117Z,101148.16
2019-04-01T22:36:33.864Z,101154.12
2019-04-01T22:39:06.970Z,101151.73
2019-04-01T22:41:41.390Z,101141.03
2019-04-01T22:44:11.632Z,101144.53
2019-04-01T22:46:44.090Z,101152.90
2019-04-01T22:49:15.859Z,101145.62
2019-04-01T22:51:47.630Z,101140.48
2019-04-01T22:54:19.282Z,101143.19
2019-04-01T22:56:51.754Z,101136.45
2019-04-01T22:59:23.415Z,101140.19
2019-04-01T23:01:55.361Z,101134.25
2019-04-01T23:04:26.828Z,101141.42
2019-04-01T23:06:58.508Z,101141.42
2019-04-01T23:09:30.344Z,101148.16
2019-04-01T23:12:01.807Z,101148.39
2019-04-01T23:14:33.550Z,101140.83
2019-04-01T23:17:05.327Z,101138.88
2019-04-01T23:19:36.863Z,101140.38
2019-04-01T23:22:08.625Z,101143.64
2019-04-01T23:24:40.403Z,101152.75
2019-04-01T23:27:11.982Z,101158.94
2019-04-01T23:29:43.614Z,101151.63
2019-04-01T23:32:16.329Z,101162.92
2019-04-01T23:34:48.147Z,101169.66
2019-04-01T23:37:19.719Z,101152.95
2019-04-01T23:39:51.168Z,101172.86
2019-04-01T23:42:23.031Z,101156.13
2019-04-01T23:44:54.687Z,101176.32
2019-04-01T23:47:26.245Z,101164.78
2019-04-01T23:49:58.207Z,101149.94
2019-04-01T23:52:29.979Z,101162.02
2019-04-01T23:55:01.622Z,101153.95
2019-04-01T23:57:33.368Z,101160.70
